sensor_id;sensor_type;location;lat;lon;timestamp;pressure;altitude;pressure_sealevel;temperature;humidity
50087;BME280;35967;50.718;7.050;2023-07-13T00:02:10;100727.50;;;19.23;49.77
50087;BME280;35967;50.718;7.050;2023-07-13T00:12:25;100734.16;;;18.98;51.27
50087;BME280;35967;50.718;7.050;2023-07-13T00:22:30;100733.78;;;18.88;51.29
50087;BME280;35967;50.718;7.050;2023-07-13T00:32:34;100729.91;;;18.80;51.87
50087;BME280;35967;50.718;7.050;2023-07-13T00:42:39;100715.94;;;18.65;52.12
50087;BME280;35967;50.718;7.050;2023-07-13T00:52:45;100704.53;;;18.51;52.82
50087;BME280;35967;50.718;7.050;2023-07-13T01:02:50;100705.78;;;18.44;52.95
50087;BME280;35967;50.718;7.050;2023-07-13T01:12:54;100711.78;;;18.46;52.86
50087;BME280;35967;50.718;7.050;2023-07-13T01:22:59;100718.78;;;18.12;54.12
50087;BME280;35967;50.718;7.050;2023-07-13T01:33:03;100725.16;;;17.89;54.62
50087;BME280;35967;50.718;7.050;2023-07-13T01:43:09;100713.47;;;17.80;55.44
50087;BME280;35967;50.718;7.050;2023-07-13T01:53:12;100716.97;;;17.79;55.65
50087;BME280;35967;50.718;7.050;2023-07-13T02:03:17;100704.56;;;17.84;54.63
50087;BME280;35967;50.718;7.050;2023-07-13T02:13:21;100708.59;;;17.74;55.73
50087;BME280;35967;50.718;7.050;2023-07-13T02:23:26;100708.41;;;17.77;55.34
50087;BME280;35967;50.718;7.050;2023-07-13T02:33:29;100718.38;;;17.69;56.12
50087;BME280;35967;50.718;7.050;2023-07-13T02:43:34;100719.28;;;17.67;56.61
50087;BME280;35967;50.718;7.050;2023-07-13T02:53:37;100719.69;;;17.60;56.23
50087;BME280;35967;50.718;7.050;2023-07-13T03:03:42;100721.81;;;17.16;57.12
50087;BME280;35967;50.718;7.050;2023-07-13T03:13:46;100727.34;;;17.45;56.35
50087;BME280;35967;50.718;7.050;2023-07-13T03:23:51;100739.38;;;17.48;56.30
50087;BME280;35967;50.718;7.050;2023-07-13T03:33:55;100737.75;;;17.45;56.11
50087;BME280;35967;50.718;7.050;2023-07-13T03:44:00;100756.53;;;17.34;56.57
50087;BME280;35967;50.718;7.050;2023-07-13T03:54:04;100756.66;;;17.49;56.77
50087;BME280;35967;50.718;7.050;2023-07-13T04:04:08;100765.69;;;17.42;57.50
50087;BME280;35967;50.718;7.050;2023-07-13T04:14:11;100775.31;;;17.22;58.85
50087;BME280;35967;50.718;7.050;2023-07-13T04:24:16;100780.91;;;17.14;59.92
50087;BME280;35967;50.718;7.050;2023-07-13T04:34:20;100785.13;;;17.52;59.23
50087;BME280;35967;50.718;7.050;2023-07-13T04:44:25;100776.84;;;17.44;60.13
50087;BME280;35967;50.718;7.050;2023-07-13T04:54:28;100778.56;;;17.62;60.18
50087;BME280;35967;50.718;7.050;2023-07-13T05:04:32;100784.31;;;17.69;61.38
50087;BME280;35967;50.718;7.050;2023-07-13T05:14:36;100787.75;;;17.70;61.41
50087;BME280;35967;50.718;7.050;2023-07-13T05:24:40;100796.94;;;18.12;60.56
50087;BME280;35967;50.718;7.050;2023-07-13T05:34:44;100808.81;;;18.18;60.93
50087;BME280;35967;50.718;7.050;2023-07-13T05:44:49;100797.00;;;18.44;60.52
50087;BME280;35967;50.718;7.050;2023-07-13T05:54:52;100810.00;;;18.62;63.01
50087;BME280;35967;50.718;7.050;2023-07-13T06:04:56;100826.28;;;18.49;62.27
50087;BME280;35967;50.718;7.050;2023-07-13T06:15:02;100830.66;;;18.98;60.14
50087;BME280;35967;50.718;7.050;2023-07-13T06:25:08;100836.59;;;20.09;56.24
50087;BME280;35967;50.718;7.050;2023-07-13T06:35:11;100849.13;;;20.33;56.53
50087;BME280;35967;50.718;7.050;2023-07-13T06:45:17;100853.03;;;20.40;55.53
50087;BME280;35967;50.718;7.050;2023-07-13T06:55:20;100863.59;;;20.68;55.36
50087;BME280;35967;50.718;7.050;2023-07-13T07:05:24;100862.66;;;20.98;54.96
50087;BME280;35967;50.718;7.050;2023-07-13T07:15:27;100859.66;;;21.86;53.04
50087;BME280;35967;50.718;7.050;2023-07-13T07:25:32;100867.22;;;22.16;51.73
50087;BME280;35967;50.718;7.050;2023-07-13T07:35:42;100870.13;;;21.86;51.75
50087;BME280;35967;50.718;7.050;2023-07-13T07:46:07;100872.69;;;22.78;48.29
50087;BME280;35967;50.718;7.050;2023-07-13T07:56:10;100868.81;;;22.71;50.37
50087;BME280;35967;50.718;7.050;2023-07-13T08:06:18;100865.84;;;22.11;50.91
50087;BME280;35967;50.718;7.050;2023-07-13T08:16:26;100856.88;;;22.41;48.43
50087;BME280;35967;50.718;7.050;2023-07-13T08:26:31;100853.78;;;23.10;46.60
50087;BME280;35967;50.718;7.050;2023-07-13T08:36:36;100837.81;;;23.61;46.26
50087;BME280;35967;50.718;7.050;2023-07-13T08:46:42;100834.97;;;23.65;43.61
50087;BME280;35967;50.718;7.050;2023-07-13T08:56:48;100841.16;;;23.63;42.95
50087;BME280;35967;50.718;7.050;2023-07-13T09:07:01;100828.22;;;23.96;42.92
50087;BME280;35967;50.718;7.050;2023-07-13T09:17:14;100835.66;;;24.14;42.24
50087;BME280;35967;50.718;7.050;2023-07-13T09:27:22;100830.03;;;23.11;44.32
50087;BME280;35967;50.718;7.050;2023-07-13T09:37:30;100821.41;;;23.46;45.18
50087;BME280;35967;50.718;7.050;2023-07-13T09:47:39;100825.41;;;23.15;44.28
50087;BME280;35967;50.718;7.050;2023-07-13T09:57:47;100834.69;;;23.56;46.06
50087;BME280;35967;50.718;7.050;2023-07-13T10:07:55;100835.06;;;24.10;43.57
50087;BME280;35967;50.718;7.050;2023-07-13T10:17:59;100834.59;;;24.73;40.30
50087;BME280;35967;50.718;7.050;2023-07-13T10:28:09;100843.56;;;24.14;41.86
50087;BME280;35967;50.718;7.050;2023-07-13T10:38:19;100848.13;;;24.68;38.89
50087;BME280;35967;50.718;7.050;2023-07-13T10:48:25;100851.59;;;24.23;36.96
50087;BME280;35967;50.718;7.050;2023-07-13T10:58:32;100859.56;;;23.63;39.35
50087;BME280;35967;50.718;7.050;2023-07-13T11:08:51;100879.34;;;23.56;37.60
50087;BME280;35967;50.718;7.050;2023-07-13T11:19:26;100887.09;;;23.46;39.49
50087;BME280;35967;50.718;7.050;2023-07-13T11:29:37;100877.19;;;23.13;39.06
50087;BME280;35967;50.718;7.050;2023-07-13T11:39:42;100884.84;;;23.16;40.93
50087;BME280;35967;50.718;7.050;2023-07-13T11:49:52;100884.78;;;23.05;38.76
50087;BME280;35967;50.718;7.050;2023-07-13T11:59:59;100876.91;;;23.05;40.18
50087;BME280;35967;50.718;7.050;2023-07-13T12:10:19;100889.84;;;23.32;40.84
50087;BME280;35967;50.718;7.050;2023-07-13T12:20:25;100892.66;;;24.02;39.40
50087;BME280;35967;50.718;7.050;2023-07-13T12:30:31;100900.31;;;23.08;43.39
50087;BME280;35967;50.718;7.050;2023-07-13T12:40:38;100911.78;;;23.07;43.47
50087;BME280;35967;50.718;7.050;2023-07-13T12:50:48;100907.88;;;23.25;43.03
50087;BME280;35967;50.718;7.050;2023-07-13T13:00:54;100908.19;;;23.08;42.93
50087;BME280;35967;50.718;7.050;2023-07-13T13:11:24;100901.06;;;23.23;41.46
50087;BME280;35967;50.718;7.050;2023-07-13T13:21:28;100905.34;;;23.24;41.09
50087;BME280;35967;50.718;7.050;2023-07-13T13:31:33;100899.81;;;23.40;40.97
50087;BME280;35967;50.718;7.050;2023-07-13T13:41:36;100897.03;;;24.14;41.03
50087;BME280;35967;50.718;7.050;2023-07-13T13:51:41;100894.47;;;23.77;39.69
50087;BME280;35967;50.718;7.050;2023-07-13T14:01:46;100876.47;;;24.31;38.90
50087;BME280;35967;50.718;7.050;2023-07-13T14:11:51;100872.06;;;24.42;38.85
50087;BME280;35967;50.718;7.050;2023-07-13T14:21:55;100878.66;;;24.71;37.14
50087;BME280;35967;50.718;7.050;2023-07-13T14:31:59;100883.78;;;24.27;37.08
50087;BME280;35967;50.718;7.050;2023-07-13T14:42:03;100879.81;;;24.33;37.98
50087;BME280;35967;50.718;7.050;2023-07-13T14:52:15;100878.34;;;24.06;38.44
50087;BME280;35967;50.718;7.050;2023-07-13T15:02:25;100868.09;;;24.25;38.96
50087;BME280;35967;50.718;7.050;2023-07-13T15:12:32;100861.16;;;24.36;37.75
50087;BME280;35967;50.718;7.050;2023-07-13T15:22:35;100866.31;;;24.37;38.56
50087;BME280;35967;50.718;7.050;2023-07-13T15:32:40;100869.16;;;24.23;37.68
50087;BME280;35967;50.718;7.050;2023-07-13T15:42:44;100855.44;;;24.31;39.04
50087;BME280;35967;50.718;7.050;2023-07-13T15:52:52;100837.97;;;24.52;39.17
50087;BME280;35967;50.718;7.050;2023-07-13T16:02:55;100846.78;;;24.06;40.26
50087;BME280;35967;50.718;7.050;2023-07-13T16:13:01;100845.31;;;23.90;40.17
50087;BME280;35967;50.718;7.050;2023-07-13T16:23:05;100855.56;;;23.82;40.85
50087;BME280;35967;50.718;7.050;2023-07-13T16:33:09;100848.09;;;23.65;41.84
50087;BME280;35967;50.718;7.050;2023-07-13T16:43:16;100871.00;;;23.51;43.10
50087;BME280;35967;50.718;7.050;2023-07-13T16:53:26;100888.69;;;22.99;46.87
50087;BME280;35967;50.718;7.050;2023-07-13T17:03:30;100891.81;;;23.04;48.28
50087;BME280;35967;50.718;7.050;2023-07-13T17:13:36;100892.72;;;22.79;48.98
50087;BME280;35967;50.718;7.050;2023-07-13T17:23:39;100901.34;;;22.68;49.41
50087;BME280;35967;50.718;7.050;2023-07-13T17:33:44;100902.19;;;22.68;49.32
50087;BME280;35967;50.718;7.050;2023-07-13T17:43:48;100903.25;;;22.66;49.30
50087;BME280;35967;50.718;7.050;2023-07-13T17:53:54;100905.94;;;22.64;49.77
50087;BME280;35967;50.718;7.050;2023-07-13T18:04:02;100921.31;;;22.45;50.22
50087;BME280;35967;50.718;7.050;2023-07-13T18:14:10;100927.97;;;22.36;49.80
50087;BME280;35967;50.718;7.050;2023-07-13T18:24:14;100932.84;;;22.42;50.07
50087;BME280;35967;50.718;7.050;2023-07-13T18:34:20;100940.03;;;22.26;50.36
50087;BME280;35967;50.718;7.050;2023-07-13T18:44:25;100939.56;;;22.06;50.50
50087;BME280;35967;50.718;7.050;2023-07-13T18:54:29;100949.22;;;22.05;50.49
50087;BME280;35967;50.718;7.050;2023-07-13T19:04:32;100955.19;;;21.95;50.92
50087;BME280;35967;50.718;7.050;2023-07-13T19:14:38;100955.22;;;21.80;51.45
50087;BME280;35967;50.718;7.050;2023-07-13T19:24:43;100968.28;;;21.67;52.07
50087;BME280;35967;50.718;7.050;2023-07-13T19:34:47;100980.94;;;21.61;52.07
50087;BME280;35967;50.718;7.050;2023-07-13T19:44:56;100981.28;;;21.69;55.28
50087;BME280;35967;50.718;7.050;2023-07-13T19:55:08;100990.66;;;21.44;53.15
50087;BME280;35967;50.718;7.050;2023-07-13T20:05:14;100995.84;;;21.31;53.92
50087;BME280;35967;50.718;7.050;2023-07-13T20:15:20;100992.47;;;21.29;53.81
50087;BME280;35967;50.718;7.050;2023-07-13T20:25:26;100988.16;;;21.28;54.74
50087;BME280;35967;50.718;7.050;2023-07-13T20:35:31;100995.75;;;21.18;54.44
50087;BME280;35967;50.718;7.050;2023-07-13T20:45:38;101001.44;;;20.96;55.30
50087;BME280;35967;50.718;7.050;2023-07-13T20:55:44;101006.88;;;20.78;56.40
50087;BME280;35967;50.718;7.050;2023-07-13T21:05:48;101001.94;;;20.27;58.06
50087;BME280;35967;50.718;7.050;2023-07-13T21:15:53;101002.97;;;20.25;58.48
50087;BME280;35967;50.718;7.050;2023-07-13T21:25:59;101007.22;;;20.11;59.27
50087;BME280;35967;50.718;7.050;2023-07-13T21:36:05;101017.78;;;19.94;60.15
50087;BME280;35967;50.718;7.050;2023-07-13T21:46:11;101024.16;;;19.72;61.10
50087;BME280;35967;50.718;7.050;2023-07-13T21:56:16;101011.53;;;19.48;62.01
50087;BME280;35967;50.718;7.050;2023-07-13T22:06:22;101017.47;;;19.18;63.07
50087;BME280;35967;50.718;7.050;2023-07-13T22:16:29;101019.94;;;18.86;63.63
50087;BME280;35967;50.718;7.050;2023-07-13T22:26:33;101021.94;;;18.64;65.01
50087;BME280;35967;50.718;7.050;2023-07-13T22:36:40;101012.81;;;18.37;66.48
50087;BME280;35967;50.718;7.050;2023-07-13T22:46:43;101014.88;;;18.13;67.47
50087;BME280;35967;50.718;7.050;2023-07-13T22:56:48;101022.69;;;18.13;67.89
50087;BME280;35967;50.718;7.050;2023-07-13T23:06:52;101012.22;;;17.95;68.63
50087;BME280;35967;50.718;7.050;2023-07-13T23:16:58;100997.47;;;17.94;69.19
50087;BME280;35967;50.718;7.050;2023-07-13T23:27:03;100992.41;;;17.91;69.57
50087;BME280;35967;50.718;7.050;2023-07-13T23:37:15;100984.09;;;17.83;70.56
50087;BME280;35967;50.718;7.050;2023-07-13T23:47:19;100985.66;;;17.87;71.04
50087;BME280;35967;50.718;7.050;2023-07-13T23:57:25;100964.69;;;17.90;70.78
